Home > Products > Valid Products > TAF

000
FTUS43 KOAX 292320
TAFOMA
TAF
KOMA 292320Z 3000/3024 08012KT P6SM OVC015
     FM300500 08018G28KT P6SM OVC012
      TEMPO 3006/3009 -RA
     FM300900 04020G28KT 4SM -RA BR OVC012
     FM301200 05016G24KT 2SM -RA BR OVC007
     FM301500 04013G20KT 4SM BR VCSH OVC007
     FM302000 04015KT 6SM BR OVC015=



000
FTUS43 KOAX 292320
TAFLNK
TAF
KLNK 292320Z 3000/3024 07014G21KT P6SM OVC015
      TEMPO 3004/3006 -RA SCT008
     FM300600 05020G28KT 4SM -RA BR OVC008
     FM301100 05016G24KT 2SM RA BR OVC004
     FM301500 05013KT 4SM BR VCSH OVC004
     FM301900 03012KT 4SM BR OVC008=



000
FTUS43 KOAX 292320
TAFOFK
TAF
KOFK 292320Z 3000/3024 07014G23KT P6SM OVC012
     FM300600 04016G24KT P6SM -RA OVC012
     FM300900 05016G24KT 4SM -RA BR OVC008
     FM301200 05015G23KT 2SM RA BR OVC004
     FM301800 04014G22KT 4SM BR VCSH OVC004=



000
FTUS43 KOAX 291730
TAFOFK
TAF
KOFK 291730Z 2918/3018 07010KT P6SM OVC015
     FM300000 05010KT P6SM VCSH OVC015
     FM300200 04009KT 4SM -SHRA OVC015
     FM300600 04016G24KT 5SM -RA BR OVC008
     FM300900 05016G24KT 3SM -RA BR OVC007=



000
FTUS43 KOAX 291730
TAFLNK
TAF
KLNK 291730Z 2918/3018 06010KT P6SM OVC020
     FM292200 06010KT P6SM VCSH OVC020
     FM300200 06014KT 6SM -SHRA OVC015
     FM300600 05020G28KT 4SM -RA BR OVC008
     FM300900 05016G24KT 3SM -RA BR OVC007=



000
FTUS43 KOAX 291730
TAFOMA
TAF
KOMA 291730Z 2918/3018 05010KT P6SM OVC025
     FM300100 06012KT 6SM HZ VCSH OVC025
     FM300600 06018G28KT 6SM HZ OVC015
      TEMPO 3006/3009 4SM -RA BR
     FM300900 04020G28KT 4SM -RA BR OVC012
     FM301200 05016G24KT 2SM -RA BR OVC007=



000
FTUS43 KOAX 291517 AAA
TAFOFK
TAF AMD
KOFK 291517Z 2915/3012 04010KT P6SM OVC015
      TEMPO 2915/2917 BKN008 OVC015
     FM292200 06010KT P6SM VCSH OVC025
     FM300400 06012KT P6SM -SHRA OVC015
     FM300600 06014G23KT P6SM -SHRA OVC015
      TEMPO 3010/3012 4SM -SHRA BR OVC007=



000
FTUS43 KOAX 291121
TAFOFK
TAF
KOFK 291121Z 2912/3012 02006KT P6SM OVC015
     FM292200 06010KT P6SM VCSH OVC025
     FM300400 06012KT P6SM -SHRA OVC015
     FM300600 06014G23KT P6SM -SHRA OVC015
      TEMPO 3010/3012 4SM -SHRA BR OVC007=



000
FTUS43 KOAX 291121
TAFOMA
TAF
KOMA 291121Z 2912/3012 01007KT P6SM OVC025
     FM291600 04009KT P6SM OVC025
     FM292000 05009KT P6SM OVC035
     FM300100 06012KT P6SM OVC025
     FM300500 06013G23KT P6SM OVC015
      TEMPO 3006/3009 5SM -RA BR
     FM300900 03020G30KT 4SM -RA BR OVC012=



000
FTUS43 KOAX 291121
TAFLNK
TAF
KLNK 291121Z 2912/3012 02007KT P6SM OVC020
     FM291600 05010KT P6SM OVC025
     FM292200 05012KT P6SM VCSH OVC015
     FM300300 06014G23KT 5SM -SHRA OVC015
     FM300600 06018G26KT 4SM -RA BR OVC008=



000
FTUS43 KOAX 291121
TAFLNK
TAF
KLNK 291121Z 2912/3012 02007KT P6SM OVC020
     FM291600 05010KT P6SM OVC025
     FM292200 05012KT P6SM VCSH OVC015
     FM300300 06014G23KT 5SM -SHRA OVC015
     FM300600 06018G26KT 4SM -RA BR OVC008=



000
FTUS43 KOAX 291121
TAFOMA
TAF
KOMA 291121Z 2912/3012 01007KT P6SM OVC025
     FM291600 04009KT P6SM OVC025
     FM292000 05009KT P6SM OVC035
     FM300100 06012KT P6SM OVC025
     FM300500 06013G23KT P6SM OVC015
      TEMPO 3006/3009 5SM -RA BR
     FM300900 03020G30KT 4SM -RA BR OVC012=



000
FTUS43 KOAX 291121
TAFOFK
TAF
KOFK 291121Z 2912/3012 02006KT P6SM OVC015
     FM292200 06010KT P6SM VCSH OVC025
     FM300400 06012KT P6SM -SHRA OVC015
     FM300600 06014G23KT P6SM -SHRA OVC015
      TEMPO 3010/3012 4SM -SHRA BR OVC007=



000
FTUS43 KOAX 290520
TAFOMA
TAF
KOMA 290520Z 2906/3006 35006KT P6SM SCT015 OVC025
      TEMPO 2909/2913 5SM BR SCT008 OVC015
     FM291600 04010KT P6SM OVC025
     FM292100 07013KT P6SM OVC025 PROB30 3003/3006 5SM -RA=



000
FTUS43 KOAX 290520
TAFLNK
TAF
KLNK 290520Z 2906/3006 03006KT P6SM OVC020
      TEMPO 2909/2913 5SM BR SCT008 OVC015
     FM291500 04011KT P6SM OVC025
     FM291900 05013KT P6SM OVC025 PROB30 2921/3002 5SM -RA
     FM300300 07013G20KT 4SM -SHRA OVC015=



000
FTUS43 KOAX 290520
TAFOFK
TAF
KOFK 290520Z 2906/3006 01005KT P6SM SCT015 OVC025
      TEMPO 2909/2913 4SM BR BKN008 OVC015
     FM291500 03009KT P6SM OVC020
     FM291900 06010KT 6SM -RA OVC015
      TEMPO 2922/3001 4SM -RA=



000
FTUS43 KOAX 290111 AAA
TAFLNK
TAF AMD
KLNK 290111Z 2901/2924 36008KT P6SM OVC025
     FM290900 02006KT 6SM BR SCT007 BKN015
     FM291400 04010KT P6SM OVC025
     FM291900 05010KT P6SM BKN035=



000
FTUS43 KOAX 290109 AAA
TAFOMA
TAF AMD
KOMA 290109Z 2901/2924 35010KT P6SM BKN025 OVC035
     FM290500 36006KT P6SM SCT015 BKN025
      TEMPO 2908/2912 5SM BR SCT007 BKN015
     FM291600 03009KT P6SM BKN025=



000
FTUS43 KOAX 290109 AAA
TAFOMA
TAF AMD
KOMA 290109Z 2901/2924 35010KT P6SM BKN025 OVC035
     FM290500 36006KT P6SM SCT015 BKN025
      TEMPO 2908/2912 5SM BR SCT007 BKN015
     FM291600 03009KT P6SM BKN025=



000
FTUS43 KOAX 282320
TAFOMA
TAF
KOMA 282320Z 2900/2924 33008KT P6SM BKN025
      TEMPO 2900/2903 SCT025 BKN050
     FM290500 35005KT P6SM SCT015 BKN025
     FM291500 03007KT P6SM BKN025=



000
FTUS43 KOAX 282320
TAFOFK
TAF
KOFK 282320Z 2900/2924 35008KT P6SM OVC020
     FM290600 02005KT 5SM BR OVC015
      TEMPO 2909/2913 4SM BR OVC008
     FM291500 03009KT P6SM OVC020=



000
FTUS43 KOAX 282320
TAFLNK
TAF
KLNK 282320Z 2900/2924 33008KT P6SM BKN025
      TEMPO 2900/2903 SCT025 BKN050
     FM290300 35005KT P6SM SCT020 BKN070
     FM290800 02005KT 5SM BR SCT007 BKN015
     FM291400 04010KT P6SM OVC025=



000
FTUS43 KOAX 282010 AAA
TAFOFK
TAF AMD
KOFK 282010Z 2820/2918 32010KT P6SM SCT015 OVC025
     FM282300 33005KT P6SM OVC025
     FM290800 36005KT P6SM OVC007=



000
FTUS43 KOAX 281806 AAA
TAFOMA
TAF AMD
KOMA 281806Z 2818/2918 33012KT P6SM BKN025
      TEMPO 2822/2902 SCT025 BKN050
     FM290200 34004KT P6SM SCT025 BKN070
     FM291200 03007KT P6SM OVC025=



000
FTUS43 KOAX 281806 AAA
TAFOMA
TAF AMD
KOMA 281806Z 2818/2918 33012KT P6SM BKN025
      TEMPO 2822/2902 SCT025 BKN050
     FM290200 34004KT P6SM SCT025 BKN070
     FM291200 03007KT P6SM OVC025=



000
FTUS43 KOAX 281749 CCA
TAFOMA
TAF COR
KOMA 281749Z 2818/2918 34012KT P6SM BKN025
      TEMPO 2822/2902 SCT025 BKN050
     FM290200 34004KT P6SM SCT025 BKN070
     FM291200 03007KT P6SM OVC025=



000
FTUS43 KOAX 281748
TAFLNK
TAF
KLNK 281748Z 2818/2918 34011KT P6SM BKN025
      TEMPO 2822/2902 SCT025 BKN050
     FM290200 34004KT P6SM SCT025 BKN070
     FM291200 03007KT P6SM OVC025=



000
FTUS43 KOAX 281745
TAFOMA
TAF
KOMA 281745Z 2818/2918 34012KT P6SM BKN025
      TEMPO 2822/2902 SCT025 BKN050
     FM290200 34004KT P6SM SCT025 BKN070
     FM291200 30007KT P6SM OVC025=



000
FTUS43 KOAX 281745
TAFOFK
TAF
KOFK 281745Z 2818/2918 34012KT P6SM SCT015 OVC025
     FM282300 33005KT P6SM OVC025
     FM290800 36005KT P6SM OVC007=



000
FTUS43 KOAX 281122
TAFOFK
TAF
KOFK 281122Z 2812/2912 34010KT P6SM SCT006 BKN015
     FM290800 36004KT P6SM BKN007 OVC015=



000
FTUS43 KOAX 281122
TAFLNK
TAF
KLNK 281122Z 2812/2912 32011KT P6SM OVC020
     FM282200 33006KT P6SM SCT025 BKN050
     FM290600 35007KT P6SM OVC025=



000
FTUS43 KOAX 281122
TAFOMA
TAF
KOMA 281122Z 2812/2912 34010KT P6SM SCT008 BKN015 OVC050
      TEMPO 2812/2814 BKN008
     FM281600 32010KT P6SM BKN015
     FM282200 34007KT P6SM SCT025 OVC050
     FM290600 35005KT P6SM OVC020=



000
FTUS43 KOAX 281122
TAFOMA
TAF
KOMA 281122Z 2812/2912 34010KT P6SM SCT008 BKN015 OVC050
      TEMPO 2812/2814 BKN008
     FM281600 32010KT P6SM BKN015
     FM282200 34007KT P6SM SCT025 OVC050
     FM290600 35005KT P6SM OVC020=



000
FTUS43 KOAX 281122
TAFOFK
TAF
KOFK 281122Z 2812/2912 34010KT P6SM SCT006 BKN015
     FM290800 36004KT P6SM BKN007 OVC015=



000
FTUS43 KOAX 281122
TAFLNK
TAF
KLNK 281122Z 2812/2912 32011KT P6SM OVC020
     FM282200 33006KT P6SM SCT025 BKN050
     FM290600 35007KT P6SM OVC025=



000
FTUS43 KOAX 280908 AAA
TAFOMA
TAF AMD
KOMA 280908Z 2809/2906 VRB04KT 2SM -RA BR BKN005 OVC015
     FM281200 32008KT 5SM BR BKN008 OVC015
     FM281500 32010KT P6SM BKN015
     FM282100 34007KT P6SM OVC050
     FM290500 35005KT P6SM OVC025=



000
FTUS43 KOAX 280520
TAFOFK
TAF
KOFK 280520Z 2806/2906 03011KT P6SM VCSH OVC004
     FM281000 35010KT P6SM VCSH OVC005
     FM281800 34008KT P6SM OVC025
     FM290000 36007KT P6SM OVC050=



000
FTUS43 KOAX 280520
TAFLNK
TAF
KLNK 280520Z 2806/2906 20004KT P6SM VCSH OVC014
     FM280900 31012KT P6SM OVC007
     FM281500 33010KT P6SM OVC015
     FM290000 35007KT P6SM OVC050=



000
FTUS43 KOAX 280520
TAFOMA
TAF
KOMA 280520Z 2806/2906 18005KT P6SM VCSH BKN017 OVC035
     FM280900 34012KT P6SM VCSH BKN020
     FM282100 34007KT P6SM OVC050
     FM290500 35005KT P6SM OVC025=



000
FTUS43 KOAX 280404 AAB
TAFLNK
TAF AMD
KLNK 280404Z 2804/2824 26004KT P6SM VCSH BKN018 OVC027
     FM281100 32010KT P6SM OVC008
     FM281600 33010KT P6SM OVC015=



000
FTUS43 KOAX 280404 AAB
TAFOFK
TAF AMD
KOFK 280404Z 2804/2824 03011KT 6SM BR VCSH OVC004
     FM280500 36009KT 5SM -SHRA OVC003
     FM281000 35010KT P6SM VCSH OVC003
     FM281800 35010KT P6SM OVC015=



000
FTUS43 KOAX 280404 AAB
TAFLNK
TAF AMD
KLNK 280404Z 2804/2824 26004KT P6SM VCSH BKN018 OVC027
     FM281100 32010KT P6SM OVC008
     FM281600 33010KT P6SM OVC015=



000
FTUS43 KOAX 280404 AAB
TAFOFK
TAF AMD
KOFK 280404Z 2804/2824 03011KT 6SM BR VCSH OVC004
     FM280500 36009KT 5SM -SHRA OVC003
     FM281000 35010KT P6SM VCSH OVC003
     FM281800 35010KT P6SM OVC015=



000
FTUS43 KOAX 280403 AAB
TAFOMA
TAF AMD
KOMA 280403Z 2804/2824 18005KT P6SM VCSH BKN017 OVC035
     FM280600 VRB06KT P6SM VCSH OVC015
     FM281500 33010KT P6SM OVC020=



000
FTUS43 KOAX 280223 AAA
TAFOMA
TAF AMD
KOMA 280223Z 2802/2824 14010KT P6SM VCSH SCT015 OVC035
     FM280600 VRB06KT P6SM VCSH OVC015
     FM281500 33010KT P6SM OVC020=



000
FTUS43 KOAX 280223 AAA
TAFOFK
TAF AMD
KOFK 280223Z 2802/2824 04015KT P6SM VCSH BKN006
     FM280500 36009KT 5SM -SHRA OVC003
     FM281000 35010KT P6SM VCSH OVC003
     FM281800 35010KT P6SM OVC015=



000
FTUS43 KOAX 280223 AAA
TAFLNK
TAF AMD
KLNK 280223Z 2802/2824 27007KT P6SM VCSH OVC008
     FM281100 32010KT P6SM OVC008
     FM281600 33010KT P6SM OVC015=



000
FTUS43 KOAX 272323
TAFOMA
TAF
KOMA 272323Z 2800/2824 14010KT 5SM -SHRA OVC035
      TEMPO 2800/2802 P6SM BKN025
     FM280200 VRB06KT P6SM -SHRA OVC025
     FM280600 VRB06KT P6SM VCSH OVC015
     FM281500 33010KT P6SM OVC020=



000
FTUS43 KOAX 272323
TAFLNK
TAF
KLNK 272323Z 2800/2824 23015G25KT P6SM VCSH OVC022
     FM280300 27009KT P6SM OVC015
     FM280500 30007KT P6SM OVC015
     FM280700 30007KT P6SM OVC008
     FM281100 31009KT P6SM OVC008
     FM281600 33010KT P6SM OVC015=



000
FTUS43 KOAX 272323
TAFOFK
TAF
KOFK 272323Z 2800/2824 06011KT P6SM VCSH SCT010 OVC030
      TEMPO 2800/2802 5SM -SHRA BR OVC004
     FM280200 01011KT 6SM -SHRA OVC003
     FM280500 36009KT 5SM -SHRA OVC003
     FM281000 35010KT P6SM VCSH OVC003
     FM281800 35010KT P6SM OVC015=



000
FTUS43 KOAX 272217 AAB
TAFOMA
TAF AMD
KOMA 272217Z 2722/2818 10018KT P6SM OVC035
      TEMPO 2722/2723 VRB20G30KT 1SM TSRA OVC015CB
     FM280600 VRB06KT P6SM VCSH OVC010
     FM281200 33007KT P6SM VCSH OVC015=



000
FTUS43 KOAX 272217 AAB
TAFOMA
TAF AMD
KOMA 272217Z 2722/2818 10018KT P6SM OVC035
      TEMPO 2722/2723 VRB20G30KT 1SM TSRA OVC015CB
     FM280600 VRB06KT P6SM VCSH OVC010
     FM281200 33007KT P6SM VCSH OVC015=



000
FTUS43 KOAX 272103 AAA
TAFLNK
TAF AMD
KLNK 272103Z 2721/2818 22015G25KT P6SM SCT025 BKN035
     FM280000 24013KT P6SM BKN015
     FM280300 24008KT P6SM VCSH OVC010
     FM280500 27008KT P6SM VCSH OVC010
     FM280800 31010KT P6SM VCSH OVC007
     FM281500 34011KT P6SM OVC025=



000
FTUS43 KOAX 272103 AAA
TAFLNK
TAF AMD
KLNK 272103Z 2721/2818 22015G25KT P6SM SCT025 BKN035
     FM280000 24013KT P6SM BKN015
     FM280300 24008KT P6SM VCSH OVC010
     FM280500 27008KT P6SM VCSH OVC010
     FM280800 31010KT P6SM VCSH OVC007
     FM281500 34011KT P6SM OVC025=



000
FTUS43 KOAX 272101 AAA
TAFOMA
TAF AMD
KOMA 272101Z 2721/2818 12018KT 6SM -TSRA BKN030CB
      TEMPO 2721/2722 VRB30G40KT 2SM -TSRA OVC015CB
     FM272200 15011KT P6SM OVC030
      TEMPO 2722/2723 6SM -TSRA BKN015CB
     FM280600 VRB06KT P6SM VCSH OVC010
     FM281200 33007KT P6SM VCSH OVC015=



000
FTUS43 KOAX 271724
TAFOFK
TAF
KOFK 271724Z 2718/2818 08018G27KT P6SM OVC004
      TEMPO 2719/2721 4SM SHRA OVC007
     FM272100 07014G24KT P6SM OVC008
     FM280100 04013KT 6SM -SHRA OVC008
     FM280600 36011KT P6SM VCSH OVC003
     FM281700 34011KT P6SM OVC008=



000
FTUS43 KOAX 271724
TAFLNK
TAF
KLNK 271724Z 2718/2818 19015G25KT P6SM SCT025 BKN035
      TEMPO 2718/2721 BKN025
     FM272100 22014KT P6SM BKN025
     FM280000 24013KT P6SM BKN015
     FM280300 24008KT P6SM VCSH OVC010
     FM280500 27008KT P6SM VCSH OVC010
     FM280800 31010KT P6SM VCSH OVC007
     FM281500 34011KT P6SM OVC025=



000
FTUS43 KOAX 271724
TAFOMA
TAF
KOMA 271724Z 2718/2818 12018G28KT P6SM BKN009 OVC015
      TEMPO 2719/2721 4SM TSRA OVC015CB
     FM272100 14014G24KT P6SM VCSH OVC035
     FM272300 19011KT P6SM OVC015
     FM280600 VRB06KT P6SM VCSH OVC010
     FM281200 33007KT P6SM VCSH OVC015=



000
FTUS43 KOAX 271515 AAA
TAFOMA
TAF AMD
KOMA 271515Z 2715/2812 10016G26KT P6SM VCSH SCT008 OVC015
     FM271800 12015G25KT P6SM SCT020 BKN040
      TEMPO 2719/2721 4SM -TSRA BKN025CB
     FM272300 11007KT P6SM VCSH BKN025=



000
FTUS43 KOAX 271441 AAB
TAFLNK
TAF AMD
KLNK 271441Z 2715/2812 17013G18KT P6SM VCSH FEW010 BKN030 OVC040
     FM271600 17015G25KT P6SM VCSH BKN040
     FM271800 18015G22KT P6SM BKN040
     FM272300 19011KT P6SM OVC025
     FM280200 VRB06KT P6SM OVC025
     FM280900 33013KT P6SM OVC012=



000
FTUS43 KOAX 271359 AAA
TAFLNK
TAF AMD
KLNK 271359Z 2714/2812 14013KT P6SM VCSH FEW010 SCT020 OVC040
     FM271600 17015KT P6SM VCSH BKN040
     FM271800 18012G20KT P6SM BKN040
     FM272300 19011KT P6SM OVC025
     FM280200 VRB06KT P6SM OVC025
     FM280900 33013KT P6SM OVC012=



000
FTUS43 KOAX 271127
TAFLNK
TAF
KLNK 271127Z 2712/2812 11015G25KT P6SM -RA SCT008 OVC015
      TEMPO 2712/2714 4SM -RA BKN008
     FM271600 19015KT P6SM VCSH BKN040
     FM272300 VRB04KT P6SM OVC025
     FM280900 33013KT P6SM OVC012=



000
FTUS43 KOAX 271127
TAFLNK
TAF
KLNK 271127Z 2712/2812 11015G25KT P6SM -RA SCT008 OVC015
      TEMPO 2712/2714 4SM -RA BKN008
     FM271600 19015KT P6SM VCSH BKN040
     FM272300 VRB04KT P6SM OVC025
     FM280900 33013KT P6SM OVC012=



000
FTUS43 KOAX 271127
TAFOMA
TAF
KOMA 271127Z 2712/2812 09023G31KT 5SM -RA BR SCT008 OVC012
      TEMPO 2712/2715 2SM RA BKN008
     FM271600 11016G26KT P6SM SCT008 BKN015
     FM271800 12015G25KT P6SM SCT020 BKN040
      TEMPO 2719/2721 4SM -TSRA BKN025CB
     FM272300 11007KT P6SM VCSH BKN025=



000
FTUS43 KOAX 271127
TAFOFK
TAF
KOFK 271127Z 2712/2812 08015G23KT 5SM -RA BR OVC007
      TEMPO 2713/2716 2SM RA
     FM271700 07015G25KT P6SM VCSH BKN007 OVC015
      TEMPO 2718/2720 5SM -TSRA BKN015CB
     FM280200 01010KT P6SM SHRA BKN008 OVC015=



000
FTUS43 KOAX 271127
TAFOMA
TAF
KOMA 271127Z 2712/2812 09023G31KT 5SM -RA BR SCT008 OVC012
      TEMPO 2712/2715 2SM RA BKN008
     FM271600 11016G26KT P6SM SCT008 BKN015
     FM271800 12015G25KT P6SM SCT020 BKN040
      TEMPO 2719/2721 4SM -TSRA BKN025CB
     FM272300 11007KT P6SM VCSH BKN025=



000
FTUS43 KOAX 271127
TAFOFK
TAF
KOFK 271127Z 2712/2812 08015G23KT 5SM -RA BR OVC007
      TEMPO 2713/2716 2SM RA
     FM271700 07015G25KT P6SM VCSH BKN007 OVC015
      TEMPO 2718/2720 5SM -TSRA BKN015CB
     FM280200 01010KT P6SM SHRA BKN008 OVC015=



000
FTUS43 KOAX 270808 AAA
TAFLNK
TAF AMD
KLNK 270808Z 2708/2806 13011KT 6SM -RA BR SCT010 BKN015 OVC040
     FM271000 08013KT P6SM VCSH BKN015
     FM271800 19015KT 5SM HZ SCT025 BKN050
     FM272000 21016KT P6SM VCSH OVC050
     FM280000 26008KT P6SM OVC025
     FM280400 33010KT P6SM OVC012=



000
FTUS43 KOAX 270748 AAA
TAFOMA
TAF AMD
KOMA 270748Z 2708/2806 09017G25KT 4SM RA BR BKN015 OVC040
     FM271100 10015G24KT 6SM -RA BR OVC015
     FM271400 11016KT 4SM -RA BR OVC007
     FM271700 11016KT 5SM -RA BR OVC015
     FM271900 11015KT P6SM OVC050 PROB30 2719/2722 3SM -TSRA
      BKN030CB
     FM280100 13007KT P6SM OVC025=



000
FTUS43 KOAX 270540
TAFOFK
TAF
KOFK 270540Z 2706/2806 05015G23KT P6SM -RA OVC015
     FM270800 04014G22KT 4SM -RA BR OVC012
     FM271100 06018G25KT 3SM -RA BR OVC007
     FM272200 04015G25KT 4SM -RA BR OVC015
     FM280100 36013G20KT 4SM -RA BR OVC015=



000
FTUS43 KOAX 270540
TAFLNK
TAF
KLNK 270540Z 2706/2806 10012KT P6SM -RA OVC080
     FM271000 09013KT 4SM -RA BR OVC015
     FM271500 11015KT 4SM BR OVC015
     FM271800 19015KT 5SM HZ OVC050
     FM272000 21016KT P6SM VCSH OVC050
     FM280000 26008KT P6SM OVC025
     FM280400 33010KT P6SM OVC012=



000
FTUS43 KOAX 270540
TAFOMA
TAF
KOMA 270540Z 2706/2806 10011KT P6SM -RA OVC070
      TEMPO 2706/2708 -TSRA BKN070CB
     FM271100 10015G24KT 4SM -RA BR OVC015
     FM271400 11016KT 4SM -RA BR OVC007
     FM271700 11016KT 5SM -RA BR OVC015
     FM271900 11015KT P6SM OVC050 PROB30 2719/2722 3SM -TSRA
      BKN030CB
     FM280100 13007KT P6SM OVC025=



    US Dept of Commerce
    National Oceanic and Atmospheric Administration
    National Weather Service
    1325 East West Highway
    Silver Spring, MD 20910
    Page Author: NWS Internet Services Team
Disclaimer
Information Quality
Credits
Glossary
Privacy Policy
Freedom of Information Act (FOIA)
About Us
Career Opportunities